createdAt,value
2017-06-05T00:00:02.636Z,61.50
2017-06-05T00:02:28.870Z,62.80
2017-06-05T00:04:55.102Z,62.60
2017-06-05T00:07:21.368Z,63.20
2017-06-05T00:09:47.590Z,63.10
2017-06-05T00:12:13.808Z,63.30
2017-06-05T00:14:40.025Z,63.70
2017-06-05T00:17:06.232Z,64.00
2017-06-05T00:19:32.455Z,63.40
2017-06-05T00:21:58.665Z,63.20
2017-06-05T00:24:24.881Z,62.20
2017-06-05T00:26:51.825Z,63.00
2017-06-05T00:29:18.796Z,62.90
2017-06-05T00:31:45.007Z,62.80
2017-06-05T00:34:11.231Z,62.60
2017-06-05T00:36:38.178Z,63.20
2017-06-05T00:39:04.418Z,63.10
2017-06-05T00:41:30.640Z,63.80
2017-06-05T00:43:56.881Z,63.80
2017-06-05T00:46:23.090Z,63.40
2017-06-05T00:48:50.029Z,64.10
2017-06-05T00:51:16.996Z,64.40
2017-06-05T00:53:43.205Z,64.30
2017-06-05T00:56:10.173Z,64.10
2017-06-05T00:58:36.375Z,64.10
2017-06-05T01:01:02.588Z,64.40
2017-06-05T01:03:28.796Z,64.40
2017-06-05T01:05:55.017Z,63.90
2017-06-05T01:08:21.228Z,63.30
2017-06-05T01:10:47.455Z,62.50
2017-06-05T01:13:13.680Z,61.40
2017-06-05T01:15:39.888Z,62.10
2017-06-05T01:18:06.113Z,62.50
2017-06-05T01:20:32.315Z,62.70
2017-06-05T01:22:58.535Z,62.60
2017-06-05T01:25:24.745Z,62.20
2017-06-05T01:27:50.969Z,62.50
2017-06-05T01:30:17.183Z,63.50
2017-06-05T01:32:43.421Z,63.50
2017-06-05T01:35:09.657Z,63.70
2017-06-05T01:37:35.894Z,64.20
2017-06-05T01:40:02.120Z,64.20
2017-06-05T01:42:28.384Z,63.90
2017-06-05T01:44:55.376Z,63.60
2017-06-05T01:47:21.628Z,63.60
2017-06-05T01:49:47.857Z,63.60
2017-06-05T01:52:14.120Z,63.40
2017-06-05T01:54:41.146Z,62.90
2017-06-05T01:57:07.364Z,62.70
2017-06-05T01:59:33.605Z,62.90
2017-06-05T02:02:00.578Z,63.70
2017-06-05T02:04:26.805Z,63.50
2017-06-05T02:06:53.013Z,63.20
2017-06-05T02:09:20.018Z,64.30
2017-06-05T02:11:46.249Z,64.20
2017-06-05T02:14:12.486Z,63.90
2017-06-05T02:16:38.702Z,65.20
2017-06-05T02:19:04.940Z,65.10
2017-06-05T02:21:31.159Z,65.30
2017-06-05T02:23:57.399Z,65.80
2017-06-05T02:26:23.619Z,65.40
2017-06-05T02:28:49.861Z,65.50
2017-06-05T02:31:16.082Z,64.60
2017-06-05T02:33:42.322Z,64.00
2017-06-05T02:36:08.549Z,64.60
2017-06-05T02:38:34.829Z,64.40
2017-06-05T02:41:01.045Z,64.20
2017-06-05T02:43:27.270Z,63.50
2017-06-05T02:45:53.502Z,63.30
2017-06-05T02:48:19.725Z,63.40
2017-06-05T02:50:45.961Z,64.60
2017-06-05T02:53:12.181Z,64.50
2017-06-05T02:55:38.426Z,64.40
2017-06-05T02:58:04.637Z,64.70
2017-06-05T03:00:30.877Z,65.30
2017-06-05T03:02:57.090Z,65.50
2017-06-05T03:05:24.069Z,65.20
2017-06-05T03:07:50.282Z,65.20
2017-06-05T03:10:16.520Z,65.40
2017-06-05T03:12:42.760Z,65.30
2017-06-05T03:15:08.997Z,64.60
2017-06-05T03:17:35.214Z,64.40
2017-06-05T03:20:01.445Z,64.70
2017-06-05T03:22:27.661Z,64.70
2017-06-05T03:24:53.899Z,64.60
2017-06-05T03:27:20.125Z,64.30
2017-06-05T03:29:46.385Z,64.10
2017-06-05T03:32:12.599Z,64.30
2017-06-05T03:34:38.830Z,64.40
2017-06-05T03:37:05.058Z,64.60
2017-06-05T03:39:31.275Z,65.30
2017-06-05T03:41:57.572Z,66.00
2017-06-05T03:44:23.789Z,66.50
2017-06-05T03:46:50.806Z,66.30
2017-06-05T03:49:17.025Z,66.30
2017-06-05T03:51:43.252Z,66.30
2017-06-05T03:54:09.456Z,66.60
2017-06-05T03:56:35.685Z,66.20
2017-06-05T03:59:01.922Z,65.60
2017-06-05T04:01:28.154Z,65.40
2017-06-05T04:03:54.497Z,65.40
2017-06-05T04:06:20.736Z,65.60
2017-06-05T04:08:46.949Z,65.40
2017-06-05T04:11:13.200Z,65.70
2017-06-05T04:13:39.399Z,65.30
2017-06-05T04:16:05.621Z,64.80
2017-06-05T04:18:31.828Z,65.40
2017-06-05T04:20:58.061Z,65.80
2017-06-05T04:23:24.258Z,65.70
2017-06-05T04:25:51.215Z,65.40
2017-06-05T04:28:17.441Z,65.40
2017-06-05T04:30:43.648Z,66.00
2017-06-05T04:33:10.612Z,66.30
2017-06-05T04:35:36.814Z,66.00
2017-06-05T04:38:03.038Z,65.80
2017-06-05T04:40:29.227Z,65.90
2017-06-05T04:42:55.457Z,66.70
2017-06-05T04:45:21.667Z,65.90
2017-06-05T04:47:47.890Z,65.70
2017-06-05T04:50:14.092Z,65.50
2017-06-05T04:52:40.315Z,65.70
2017-06-05T04:55:06.509Z,65.20
2017-06-05T04:57:33.494Z,66.30
2017-06-05T04:59:59.759Z,65.40
2017-06-05T05:02:25.999Z,65.80
2017-06-05T05:04:52.222Z,66.20
2017-06-05T05:07:18.453Z,66.10
2017-06-05T05:09:44.670Z,65.90
2017-06-05T05:12:10.937Z,66.40
2017-06-05T05:14:37.902Z,66.10
2017-06-05T05:17:04.121Z,66.00
2017-06-05T05:19:30.356Z,66.00
2017-06-05T05:21:56.573Z,65.80
2017-06-05T05:24:23.549Z,65.70
2017-06-05T05:26:49.763Z,65.70
2017-06-05T05:29:16.004Z,65.90
2017-06-05T05:31:42.222Z,65.90
2017-06-05T05:34:08.459Z,65.70
2017-06-05T05:36:34.694Z,65.90
2017-06-05T05:39:00.938Z,66.00
2017-06-05T05:41:27.161Z,66.00
2017-06-05T05:43:53.408Z,66.10
2017-06-05T05:46:19.629Z,66.10
2017-06-05T05:48:45.876Z,66.40
2017-06-05T05:51:12.104Z,66.80
2017-06-05T05:53:38.337Z,66.50
2017-06-05T05:56:04.551Z,66.60
2017-06-05T05:58:30.770Z,66.70
2017-06-05T06:00:57.010Z,66.50
2017-06-05T06:03:23.226Z,66.60
2017-06-05T06:05:49.456Z,66.60
2017-06-05T06:08:15.664Z,67.00
2017-06-05T06:10:41.908Z,67.20
2017-06-05T06:13:08.152Z,67.70
2017-06-05T06:15:34.386Z,67.70
2017-06-05T06:18:00.608Z,67.50
2017-06-05T06:20:26.848Z,66.90
2017-06-05T06:22:53.813Z,66.20
2017-06-05T06:25:20.796Z,66.50
2017-06-05T06:27:47.017Z,66.40
2017-06-05T06:30:13.254Z,67.00
2017-06-05T06:32:39.464Z,66.90
2017-06-05T06:35:05.702Z,67.60
2017-06-05T06:37:31.925Z,68.40
2017-06-05T06:39:58.159Z,68.60
2017-06-05T06:42:24.373Z,68.90
2017-06-05T06:44:50.583Z,69.40
2017-06-05T06:47:17.586Z,68.70
2017-06-05T06:49:43.816Z,68.70
2017-06-05T06:52:10.062Z,69.00
2017-06-05T06:54:36.281Z,68.20
2017-06-05T06:57:02.514Z,68.60
2017-06-05T06:59:28.735Z,69.10
2017-06-05T07:01:54.975Z,69.70
2017-06-05T07:04:21.218Z,70.00
2017-06-05T07:06:48.226Z,70.90
2017-06-05T07:09:14.468Z,70.80
2017-06-05T07:11:40.709Z,70.50
2017-06-05T07:14:06.934Z,69.70
2017-06-05T07:16:33.133Z,69.30
2017-06-05T07:18:59.357Z,70.10
2017-06-05T07:21:25.557Z,71.40
2017-06-05T07:23:51.786Z,70.70
2017-06-05T07:26:17.993Z,70.30
2017-06-05T07:28:44.965Z,70.20
2017-06-05T07:31:11.167Z,70.10
2017-06-05T07:33:38.144Z,69.50
2017-06-05T07:36:04.349Z,69.40
2017-06-05T07:38:31.310Z,69.40
2017-06-05T07:40:57.509Z,69.30
2017-06-05T07:43:24.479Z,68.70
2017-06-05T07:45:50.677Z,68.60
2017-06-05T07:48:16.899Z,69.10
2017-06-05T07:50:43.097Z,68.10
2017-06-05T07:53:09.306Z,67.40
2017-06-05T07:55:35.525Z,68.20
2017-06-05T07:58:01.729Z,68.50
2017-06-05T08:00:28.719Z,68.10
2017-06-05T08:02:54.947Z,68.10
2017-06-05T08:05:21.183Z,67.90
2017-06-05T08:07:47.394Z,67.90
2017-06-05T08:10:13.622Z,68.20
2017-06-05T08:12:39.862Z,68.60
2017-06-05T08:15:06.093Z,68.30
2017-06-05T08:17:32.308Z,68.20
2017-06-05T08:19:58.545Z,68.20
2017-06-05T08:22:24.766Z,68.20
2017-06-05T08:24:51.005Z,68.20
2017-06-05T08:27:17.221Z,68.30
2017-06-05T08:29:43.442Z,68.60
2017-06-05T08:32:09.679Z,68.70
2017-06-05T08:34:35.893Z,68.90
2017-06-05T08:37:02.130Z,69.10
2017-06-05T08:39:28.351Z,68.90
2017-06-05T08:41:54.613Z,69.30
2017-06-05T08:44:20.825Z,69.30
2017-06-05T08:46:47.073Z,67.70
2017-06-05T08:49:13.285Z,67.40
2017-06-05T08:51:39.529Z,67.70
2017-06-05T08:54:05.743Z,67.60
2017-06-05T08:56:31.961Z,67.00
2017-06-05T08:58:58.201Z,67.70
2017-06-05T09:01:24.412Z,67.60
2017-06-05T09:03:50.641Z,67.40
2017-06-05T09:06:16.867Z,67.90
2017-06-05T09:08:43.106Z,68.00
2017-06-05T09:11:09.325Z,68.00
2017-06-05T09:13:35.594Z,67.20
2017-06-05T09:16:01.806Z,67.40
2017-06-05T09:18:28.038Z,67.80
2017-06-05T09:20:54.282Z,67.50
2017-06-05T09:23:20.566Z,68.10
2017-06-05T09:25:46.806Z,68.30
2017-06-05T09:28:13.051Z,68.30
2017-06-05T09:30:39.303Z,68.10
2017-06-05T09:33:05.517Z,68.40
2017-06-05T09:35:31.758Z,68.50
2017-06-05T09:37:57.972Z,68.50
2017-06-05T09:40:24.204Z,68.40
2017-06-05T09:42:50.417Z,68.70
2017-06-05T09:45:16.657Z,69.70
2017-06-05T09:47:42.881Z,69.90
2017-06-05T09:50:09.120Z,69.80
2017-06-05T09:52:35.345Z,69.50
2017-06-05T09:55:01.603Z,70.00
2017-06-05T09:57:28.569Z,70.70
2017-06-05T09:59:54.786Z,70.60
2017-06-05T10:02:21.031Z,70.40
2017-06-05T10:04:47.249Z,70.50
2017-06-05T10:07:13.490Z,69.80
2017-06-05T10:09:39.708Z,70.20
2017-06-05T10:12:05.962Z,70.30
2017-06-05T10:14:32.181Z,70.20
2017-06-05T10:16:58.427Z,70.40
2017-06-05T10:19:24.642Z,70.80
2017-06-05T10:21:50.905Z,70.50
2017-06-05T10:24:17.124Z,70.40
2017-06-05T10:26:43.341Z,70.90
2017-06-05T10:29:09.581Z,70.90
2017-06-05T10:31:35.797Z,70.60
2017-06-05T10:34:02.045Z,70.20
2017-06-05T10:36:28.266Z,69.60
2017-06-05T10:38:54.501Z,68.80
2017-06-05T10:41:20.720Z,69.10
2017-06-05T10:43:46.952Z,69.80
2017-06-05T10:46:13.159Z,70.30
2017-06-05T10:48:39.401Z,70.00
2017-06-05T10:51:05.617Z,69.70
2017-06-05T10:53:31.853Z,69.90
2017-06-05T10:55:58.064Z,69.90
2017-06-05T10:58:24.330Z,70.60
2017-06-05T11:00:50.541Z,70.60
2017-06-05T11:03:16.780Z,70.70
2017-06-05T11:05:43.009Z,70.30
2017-06-05T11:08:09.220Z,70.40
2017-06-05T11:10:35.457Z,71.00
2017-06-05T11:13:01.679Z,71.20
2017-06-05T11:15:27.897Z,71.50
2017-06-05T11:17:54.097Z,70.90
2017-06-05T11:20:20.320Z,70.30
2017-06-05T11:22:46.513Z,70.10
2017-06-05T11:25:12.756Z,70.50
2017-06-05T11:27:39.701Z,71.70
2017-06-05T11:30:06.643Z,70.90
2017-06-05T11:32:32.862Z,70.70
2017-06-05T11:34:59.055Z,68.80
2017-06-05T11:37:25.277Z,71.10
2017-06-05T11:39:51.487Z,71.90
2017-06-05T11:42:17.726Z,70.70
2017-06-05T11:44:43.929Z,71.70
2017-06-05T11:47:10.156Z,72.60
2017-06-05T11:49:36.362Z,73.60
2017-06-05T11:52:02.580Z,69.90
2017-06-05T11:54:28.788Z,66.30
2017-06-05T11:56:55.010Z,64.50
2017-06-05T11:59:21.204Z,66.10
2017-06-05T12:01:47.410Z,65.10
2017-06-05T12:04:14.373Z,65.80
2017-06-05T12:06:40.579Z,65.80
2017-06-05T12:09:07.553Z,65.00
2017-06-05T12:11:33.778Z,64.90
2017-06-05T12:14:00.000Z,66.70
2017-06-05T12:16:26.201Z,65.50
2017-06-05T12:18:53.170Z,65.80
2017-06-05T12:21:19.392Z,64.80
2017-06-05T12:23:46.357Z,65.00
2017-06-05T12:26:12.563Z,64.90
2017-06-05T12:28:39.530Z,63.50
2017-06-05T12:31:05.737Z,63.40
2017-06-05T12:33:32.726Z,62.30
2017-06-05T12:35:58.931Z,62.20
2017-06-05T12:38:25.156Z,62.00
2017-06-05T12:40:51.360Z,60.00
2017-06-05T12:43:18.330Z,62.10
2017-06-05T12:45:44.527Z,62.00
2017-06-05T12:48:10.729Z,61.10
2017-06-05T12:50:36.955Z,60.70
2017-06-05T12:53:03.163Z,61.20
2017-06-05T12:55:29.385Z,60.00
2017-06-05T12:57:55.589Z,60.40
2017-06-05T13:00:21.841Z,59.30
2017-06-05T13:02:48.042Z,60.00
2017-06-05T13:05:14.272Z,60.80
2017-06-05T13:07:40.464Z,60.20
2017-06-05T13:10:06.694Z,62.60
2017-06-05T13:12:32.934Z,62.50
2017-06-05T13:14:59.173Z,60.50
2017-06-05T13:17:26.134Z,61.80
2017-06-05T13:19:52.356Z,60.90
2017-06-05T13:22:18.594Z,59.10
2017-06-05T13:24:44.803Z,59.90
2017-06-05T13:27:11.775Z,58.80
2017-06-05T13:29:37.990Z,58.80
2017-06-05T13:32:04.242Z,58.90
2017-06-05T13:34:30.461Z,59.10
2017-06-05T13:36:56.697Z,61.00
2017-06-05T13:39:22.925Z,58.90
2017-06-05T13:41:49.161Z,60.50
2017-06-05T13:44:15.382Z,59.60
2017-06-05T13:46:41.614Z,58.70
2017-06-05T13:49:07.835Z,59.30
2017-06-05T13:51:34.071Z,59.20
2017-06-05T13:54:00.294Z,60.20
2017-06-05T13:56:26.553Z,60.80
2017-06-05T13:58:52.777Z,59.90
2017-06-05T14:01:19.000Z,59.70
2017-06-05T14:03:45.237Z,59.20
2017-06-05T14:06:11.455Z,59.40
2017-06-05T14:08:37.696Z,58.30
2017-06-05T14:11:03.913Z,58.70
2017-06-05T14:13:30.174Z,58.10
2017-06-05T14:15:56.393Z,58.80
2017-06-05T14:18:22.631Z,58.10
2017-06-05T14:20:48.854Z,58.30
2017-06-05T14:23:15.096Z,58.60
2017-06-05T14:25:42.058Z,58.50
2017-06-05T14:28:08.313Z,58.50
2017-06-05T14:30:34.533Z,58.90
2017-06-05T14:33:00.754Z,59.80
2017-06-05T14:35:26.993Z,61.50
2017-06-05T14:37:53.228Z,59.80
2017-06-05T14:40:19.461Z,59.50
2017-06-05T14:42:45.686Z,59.60
2017-06-05T14:45:11.925Z,59.70
2017-06-05T14:47:38.144Z,60.00
2017-06-05T14:50:04.388Z,60.00
2017-06-05T14:52:30.616Z,58.90
2017-06-05T14:54:56.860Z,60.00
2017-06-05T14:57:23.077Z,61.00
2017-06-05T14:59:49.315Z,60.80
2017-06-05T15:02:15.529Z,60.40
2017-06-05T15:04:41.804Z,60.90
2017-06-05T15:07:08.753Z,59.90
2017-06-05T15:09:34.978Z,59.90
2017-06-05T15:12:01.976Z,60.20
2017-06-05T15:14:28.190Z,60.20
2017-06-05T15:16:54.424Z,59.50
2017-06-05T15:19:20.644Z,59.80
2017-06-05T15:21:46.882Z,59.30
2017-06-05T15:24:13.102Z,59.40
2017-06-05T15:26:39.338Z,60.00
2017-06-05T15:29:05.562Z,59.20
2017-06-05T15:31:31.806Z,59.70
2017-06-05T15:33:58.025Z,60.00
2017-06-05T15:36:24.267Z,59.30
2017-06-05T15:38:50.528Z,58.80
2017-06-05T15:41:17.514Z,59.00
2017-06-05T15:43:43.738Z,59.00
2017-06-05T15:46:09.990Z,58.80
2017-06-05T15:48:36.210Z,58.90
2017-06-05T15:51:02.427Z,58.80
2017-06-05T15:53:28.665Z,59.10
2017-06-05T15:55:54.880Z,59.30
2017-06-05T15:58:21.138Z,59.30
2017-06-05T16:00:47.358Z,58.80
2017-06-05T16:03:13.593Z,58.90
2017-06-05T16:05:39.813Z,58.80
2017-06-05T16:08:06.054Z,60.40
2017-06-05T16:10:32.268Z,61.00
2017-06-05T16:12:58.524Z,60.20
2017-06-05T16:15:24.743Z,59.90
2017-06-05T16:17:50.978Z,60.50
2017-06-05T16:20:17.202Z,59.90
2017-06-05T16:22:43.428Z,59.70
2017-06-05T16:25:09.666Z,59.50
2017-06-05T16:30:08.797Z,59.70
2017-06-05T16:32:35.762Z,59.40
2017-06-05T16:35:02.010Z,59.40
2017-06-05T16:37:28.230Z,59.30
2017-06-05T16:39:54.477Z,59.10
2017-06-05T16:42:20.701Z,58.60
2017-06-05T16:44:46.938Z,58.50
2017-06-05T16:47:13.152Z,58.10
2017-06-05T16:49:39.393Z,58.60
2017-06-05T16:52:05.618Z,58.60
2017-06-05T16:54:31.861Z,58.20
2017-06-05T16:56:58.078Z,57.00
2017-06-05T16:59:24.298Z,57.70
2017-06-05T17:01:50.552Z,57.60
2017-06-05T17:04:16.770Z,57.80
2017-06-05T17:06:43.006Z,58.60
2017-06-05T17:09:09.226Z,58.80
2017-06-05T17:11:35.469Z,58.30
2017-06-05T17:14:02.429Z,58.40
2017-06-05T17:16:29.397Z,58.20
2017-06-05T17:18:55.670Z,58.20
2017-06-05T17:21:21.903Z,58.40
2017-06-05T17:23:48.109Z,58.20
2017-06-05T17:26:14.339Z,57.90
2017-06-05T17:28:40.537Z,57.70
2017-06-05T17:31:06.774Z,58.10
2017-06-05T17:33:32.970Z,58.30
2017-06-05T17:35:59.929Z,58.70
2017-06-05T17:38:26.894Z,58.90
2017-06-05T17:40:53.101Z,58.80
2017-06-05T17:43:20.079Z,58.70
2017-06-05T17:45:46.285Z,58.70
2017-06-05T17:48:12.517Z,58.70
2017-06-05T17:50:38.730Z,58.10
2017-06-05T17:53:05.697Z,58.50
2017-06-05T17:55:31.901Z,58.40
2017-06-05T17:57:59.677Z,59.10
2017-06-05T18:00:25.904Z,58.70
2017-06-05T18:02:52.128Z,58.50
2017-06-05T18:05:19.063Z,58.10
2017-06-05T18:07:46.029Z,57.70
2017-06-05T18:10:12.236Z,57.70
2017-06-05T18:12:39.247Z,58.50
2017-06-05T18:15:05.474Z,58.40
2017-06-05T18:17:31.701Z,58.60
2017-06-05T18:19:57.939Z,58.10
2017-06-05T18:22:24.158Z,58.10
2017-06-05T18:24:50.394Z,58.20
2017-06-05T18:27:16.604Z,58.30
2017-06-05T18:29:42.841Z,58.70
2017-06-05T18:32:09.060Z,58.60
2017-06-05T18:34:35.299Z,58.70
2017-06-05T18:37:01.522Z,58.60
2017-06-05T18:39:27.756Z,59.00
2017-06-05T18:41:53.968Z,59.20
2017-06-05T18:44:20.210Z,59.60
2017-06-05T18:46:46.429Z,59.50
2017-06-05T18:49:12.648Z,59.40
2017-06-05T18:51:38.889Z,59.70
2017-06-05T18:54:05.107Z,60.10
2017-06-05T18:56:31.344Z,60.30
2017-06-05T18:58:57.563Z,60.60
2017-06-05T19:01:23.796Z,60.70
2017-06-05T19:03:50.005Z,61.20
2017-06-05T19:06:16.241Z,61.60
2017-06-05T19:08:42.461Z,62.90
2017-06-05T19:11:08.703Z,62.70
2017-06-05T19:13:34.945Z,61.90
2017-06-05T19:16:01.156Z,62.00
2017-06-05T19:18:27.398Z,61.90
2017-06-05T19:20:53.621Z,62.30
2017-06-05T19:23:19.849Z,63.00
2017-06-05T19:25:46.068Z,63.60
2017-06-05T19:28:12.306Z,64.00
2017-06-05T19:30:38.531Z,64.00
2017-06-05T19:33:04.769Z,63.50
2017-06-05T19:35:30.985Z,63.00
2017-06-05T19:37:57.222Z,63.30
2017-06-05T19:40:23.453Z,64.10
2017-06-05T19:42:49.689Z,64.10
2017-06-05T19:45:15.905Z,64.60
2017-06-05T19:47:42.145Z,64.90
2017-06-05T19:50:08.365Z,64.70
2017-06-05T19:52:34.637Z,64.00
2017-06-05T19:55:01.598Z,65.00
2017-06-05T19:57:28.558Z,65.10
2017-06-05T19:59:54.808Z,65.10
2017-06-05T20:02:21.021Z,65.40
2017-06-05T20:04:47.257Z,65.80
2017-06-05T20:07:13.472Z,66.00
2017-06-05T20:09:39.710Z,66.20
2017-06-05T20:12:05.938Z,66.50
2017-06-05T20:14:32.165Z,66.50
2017-06-05T20:16:58.373Z,66.10
2017-06-05T20:19:24.596Z,66.50
2017-06-05T20:21:51.546Z,66.60
2017-06-05T20:24:17.778Z,66.60
2017-06-05T20:26:43.979Z,66.60
2017-06-05T20:29:10.968Z,67.00
2017-06-05T20:31:37.162Z,67.10
2017-06-05T20:34:04.101Z,66.90
2017-06-05T20:36:31.069Z,67.30
2017-06-05T20:38:57.273Z,67.00
2017-06-05T20:41:24.236Z,67.00
2017-06-05T20:46:24.178Z,67.00
2017-06-05T20:48:50.380Z,67.00
2017-06-05T20:51:17.370Z,67.30
2017-06-05T20:53:43.600Z,66.40
2017-06-05T20:56:09.823Z,66.70
2017-06-05T20:58:36.037Z,66.90
2017-06-05T21:01:02.267Z,67.10
2017-06-05T21:03:28.465Z,67.00
2017-06-05T21:05:55.431Z,67.00
2017-06-05T21:08:21.625Z,67.00
2017-06-05T21:10:47.847Z,67.20
2017-06-05T21:13:14.075Z,66.90
2017-06-05T21:15:40.307Z,66.70
2017-06-05T21:18:07.243Z,67.10
2017-06-05T21:20:33.460Z,67.10
2017-06-05T21:22:59.687Z,67.40
2017-06-05T21:25:25.887Z,67.30
2017-06-05T21:27:52.116Z,67.30
2017-06-05T21:30:18.320Z,67.40
2017-06-05T21:32:45.294Z,67.50
2017-06-05T21:35:11.500Z,67.40
2017-06-05T21:37:37.722Z,67.90
2017-06-05T21:40:04.667Z,68.10
2017-06-05T21:42:31.625Z,68.10
2017-06-05T21:44:57.824Z,67.90
2017-06-05T21:47:24.794Z,68.10
2017-06-05T21:49:51.006Z,68.10
2017-06-05T21:52:17.978Z,68.00
2017-06-05T21:54:44.168Z,67.90
2017-06-05T21:57:11.130Z,67.60
2017-06-05T21:59:38.066Z,67.40
2017-06-05T22:02:05.026Z,67.30
2017-06-05T22:04:31.224Z,67.20
2017-06-05T22:06:57.429Z,68.40
2017-06-05T22:09:23.662Z,67.50
2017-06-05T22:11:49.902Z,67.60
2017-06-05T22:14:16.127Z,67.90
2017-06-05T22:16:42.346Z,67.70
2017-06-05T22:19:08.608Z,68.20
2017-06-05T22:21:35.573Z,68.30
2017-06-05T22:24:01.814Z,68.20
2017-06-05T22:26:28.020Z,68.40
2017-06-05T22:28:55.017Z,68.10
2017-06-05T22:31:21.229Z,68.00
2017-06-05T22:33:47.462Z,68.40
2017-06-05T22:36:13.687Z,68.50
2017-06-05T22:38:39.953Z,68.60
2017-06-05T22:41:06.168Z,68.10
2017-06-05T22:43:32.372Z,67.60
2017-06-05T22:45:58.604Z,67.90
2017-06-05T22:48:24.827Z,67.90
2017-06-05T22:50:51.062Z,68.00
2017-06-05T22:53:17.279Z,68.40
2017-06-05T22:55:43.511Z,68.20
2017-06-05T22:58:09.726Z,68.50
2017-06-05T23:00:35.965Z,68.80
2017-06-05T23:03:02.186Z,69.20
2017-06-05T23:05:28.418Z,69.00
2017-06-05T23:07:55.093Z,69.30
2017-06-05T23:10:21.329Z,69.60
2017-06-05T23:12:47.561Z,69.50
2017-06-05T23:15:13.784Z,69.50
2017-06-05T23:17:40.018Z,69.50
2017-06-05T23:20:06.237Z,69.60
2017-06-05T23:22:32.476Z,69.70
2017-06-05T23:24:58.690Z,69.60
2017-06-05T23:27:24.935Z,69.90
2017-06-05T23:29:51.900Z,70.30
2017-06-05T23:32:18.893Z,70.00
2017-06-05T23:34:45.137Z,69.90
2017-06-05T23:37:11.374Z,70.00
2017-06-05T23:39:37.597Z,70.30
2017-06-05T23:42:03.805Z,70.30
2017-06-05T23:44:30.050Z,70.20
2017-06-05T23:46:56.262Z,70.40
2017-06-05T23:49:22.502Z,70.60
2017-06-05T23:51:48.728Z,70.40
2017-06-05T23:54:14.974Z,70.30
2017-06-05T23:56:41.200Z,70.00
2017-06-05T23:59:07.440Z,69.80
